createdAt,value
2023-04-25T00:00:03.263Z,7.60
2023-04-25T00:01:02.688Z,7.60
2023-04-25T00:02:03.438Z,7.60
2023-04-25T00:03:03.204Z,7.50
2023-04-25T00:04:03.005Z,7.50
2023-04-25T00:05:03.639Z,7.60
2023-04-25T00:06:03.633Z,7.50
2023-04-25T00:07:03.515Z,7.50
2023-04-25T00:08:03.414Z,7.50
2023-04-25T00:09:03.029Z,7.50
2023-04-25T00:10:03.094Z,7.50
2023-04-25T00:11:03.003Z,7.50
2023-04-25T00:12:03.477Z,7.50
2023-04-25T00:13:02.946Z,7.50
2023-04-25T00:14:03.548Z,7.40
2023-04-25T00:15:03.088Z,7.40
2023-04-25T00:16:03.659Z,7.40
2023-04-25T00:17:03.332Z,7.40
2023-04-25T00:18:02.793Z,7.40
2023-04-25T00:19:03.348Z,7.40
2023-04-25T00:20:02.810Z,7.40
2023-04-25T00:21:02.932Z,7.40
2023-04-25T00:22:02.905Z,7.40
2023-04-25T00:23:03.302Z,7.40
2023-04-25T00:24:02.861Z,7.40
2023-04-25T00:25:03.432Z,7.40
2023-04-25T00:26:03.029Z,7.40
2023-04-25T00:27:03.570Z,7.40
2023-04-25T00:28:03.158Z,7.40
2023-04-25T00:29:02.653Z,7.30
2023-04-25T00:30:03.537Z,7.40
2023-04-25T00:31:03.552Z,7.30
2023-04-25T00:32:03.201Z,7.30
2023-04-25T00:33:03.285Z,7.40
2023-04-25T00:34:02.800Z,7.40
2023-04-25T00:35:02.672Z,7.40
2023-04-25T00:36:03.599Z,7.40
2023-04-25T00:37:03.525Z,7.40
2023-04-25T00:38:02.974Z,7.40
2023-04-25T00:39:03.442Z,7.40
2023-04-25T00:40:02.891Z,7.40
2023-04-25T00:41:03.240Z,7.40
2023-04-25T00:42:02.766Z,7.40
2023-04-25T00:43:02.629Z,7.40
2023-04-25T00:44:03.317Z,7.40
2023-04-25T00:45:02.923Z,7.50
2023-04-25T00:46:02.840Z,7.50
2023-04-25T00:47:02.858Z,7.40
2023-04-25T00:48:02.938Z,7.50
2023-04-25T00:49:03.558Z,7.50
2023-04-25T00:50:03.117Z,7.50
2023-04-25T00:51:03.612Z,7.50
2023-04-25T00:52:03.185Z,7.50
2023-04-25T00:53:03.648Z,7.50
2023-04-25T00:54:03.172Z,7.50
2023-04-25T00:55:03.146Z,7.50
2023-04-25T00:56:02.725Z,7.50
2023-04-25T00:57:03.235Z,7.50
2023-04-25T00:58:02.818Z,7.40
2023-04-25T00:59:02.738Z,7.50
2023-04-25T01:00:02.748Z,7.40
2023-04-25T01:01:03.291Z,7.40
2023-04-25T01:02:02.864Z,7.40
2023-04-25T01:03:03.540Z,7.40
2023-04-25T01:04:03.382Z,7.50
2023-04-25T01:05:02.955Z,7.50
2023-04-25T01:06:02.967Z,7.50
2023-04-25T01:07:03.112Z,7.40
2023-04-25T01:08:02.690Z,7.50
2023-04-25T01:09:03.550Z,7.50
2023-04-25T01:10:03.149Z,7.50
2023-04-25T01:11:02.760Z,7.50
2023-04-25T01:12:02.625Z,7.50
2023-04-25T01:13:03.012Z,7.50
2023-04-25T01:14:03.597Z,7.50
2023-04-25T01:15:03.454Z,7.50
2023-04-25T01:16:03.460Z,7.50
2023-04-25T01:17:03.120Z,7.50
2023-04-25T01:18:02.666Z,7.50
2023-04-25T01:19:02.799Z,7.50
2023-04-25T01:20:03.360Z,7.50
2023-04-25T01:21:02.907Z,7.50
2023-04-25T01:22:03.391Z,7.60
2023-04-25T01:23:02.907Z,7.60
2023-04-25T01:24:03.389Z,7.60
2023-04-25T01:25:03.493Z,7.60
2023-04-25T01:26:02.933Z,7.60
2023-04-25T01:27:03.569Z,7.60
2023-04-25T01:28:03.514Z,7.60
2023-04-25T01:29:03.073Z,7.60
2023-04-25T01:30:02.660Z,7.60
2023-04-25T01:31:02.625Z,7.70
2023-04-25T01:32:03.644Z,7.70
2023-04-25T01:33:02.738Z,7.70
2023-04-25T01:34:03.263Z,7.70
2023-04-25T01:35:02.732Z,7.70
2023-04-25T01:36:02.749Z,7.70
2023-04-25T01:37:03.502Z,7.70
2023-04-25T01:38:02.946Z,7.70
2023-04-25T01:39:02.910Z,7.70
2023-04-25T01:40:02.845Z,7.70
2023-04-25T01:41:03.458Z,7.70
2023-04-25T01:42:02.924Z,7.70
2023-04-25T01:43:03.395Z,7.70
2023-04-25T01:44:04.521Z,7.70
2023-04-25T01:45:03.427Z,7.70
2023-04-25T01:46:03.469Z,7.70
2023-04-25T01:47:03.232Z,7.70
2023-04-25T01:48:02.679Z,7.70
2023-04-25T01:49:03.283Z,7.70
2023-04-25T01:50:03.080Z,7.70
2023-04-25T01:51:02.629Z,7.70
2023-04-25T01:52:03.282Z,7.70
2023-04-25T01:53:03.171Z,7.70
2023-04-25T01:54:03.175Z,7.70
2023-04-25T01:55:03.616Z,7.70
2023-04-25T01:56:03.223Z,7.70
2023-04-25T01:57:02.735Z,7.70
2023-04-25T01:58:03.295Z,7.70
2023-04-25T01:59:02.869Z,7.70
2023-04-25T02:00:03.341Z,7.70
2023-04-25T02:01:02.882Z,7.70
2023-04-25T02:02:03.522Z,7.70
2023-04-25T02:03:03.142Z,7.70
2023-04-25T02:04:02.961Z,7.80
2023-04-25T02:05:02.908Z,7.80
2023-04-25T02:06:02.910Z,7.80
2023-04-25T02:07:03.388Z,7.80
2023-04-25T02:08:02.913Z,7.80
2023-04-25T02:09:03.513Z,7.80
2023-04-25T02:10:03.340Z,7.80
2023-04-25T02:11:02.818Z,7.80
2023-04-25T02:12:02.769Z,7.80
2023-04-25T02:13:03.380Z,7.80
2023-04-25T02:14:02.875Z,7.80
2023-04-25T02:15:03.445Z,7.80
2023-04-25T02:16:03.349Z,7.80
2023-04-25T02:17:03.410Z,7.80
2023-04-25T02:18:02.697Z,7.80
2023-04-25T02:19:02.778Z,7.80
2023-04-25T02:20:03.333Z,7.80
2023-04-25T02:21:03.323Z,7.90
2023-04-25T02:22:02.812Z,7.80
2023-04-25T02:23:03.342Z,7.90
2023-04-25T02:24:02.939Z,7.90
2023-04-25T02:25:02.809Z,7.90
2023-04-25T02:26:03.340Z,7.90
2023-04-25T02:27:02.868Z,7.90
2023-04-25T02:28:03.315Z,7.90
2023-04-25T02:29:03.201Z,7.90
2023-04-25T02:30:03.240Z,7.90
2023-04-25T02:31:03.111Z,7.90
2023-04-25T02:32:03.104Z,7.90
2023-04-25T02:33:03.057Z,7.90
2023-04-25T02:34:03.500Z,7.90
2023-04-25T02:35:03.105Z,7.90
2023-04-25T02:36:03.614Z,7.90
2023-04-25T02:37:03.084Z,7.90
2023-04-25T02:38:02.659Z,7.90
2023-04-25T02:39:03.273Z,7.90
2023-04-25T02:40:03.349Z,7.90
2023-04-25T02:41:02.769Z,7.90
2023-04-25T02:42:03.242Z,7.90
2023-04-25T02:43:02.903Z,7.90
2023-04-25T02:44:03.477Z,7.90
2023-04-25T02:45:02.921Z,7.90
2023-04-25T02:46:03.355Z,7.90
2023-04-25T02:47:02.681Z,7.90
2023-04-25T02:48:02.831Z,7.90
2023-04-25T02:49:02.954Z,7.80
2023-04-25T02:50:02.998Z,7.80
2023-04-25T02:51:03.540Z,7.80
2023-04-25T02:52:02.968Z,7.80
2023-04-25T02:53:03.049Z,7.80
2023-04-25T02:54:03.492Z,7.80
2023-04-25T02:55:03.068Z,7.80
2023-04-25T02:56:02.981Z,7.80
2023-04-25T02:57:03.502Z,7.80
2023-04-25T02:58:03.001Z,7.80
2023-04-25T02:59:03.523Z,7.90
2023-04-25T03:00:03.007Z,7.90
2023-04-25T03:01:03.008Z,7.90
2023-04-25T03:02:03.046Z,7.90
2023-04-25T03:03:03.222Z,7.80
2023-04-25T03:04:02.867Z,7.90
2023-04-25T03:05:03.481Z,7.90
2023-04-25T03:06:03.137Z,7.90
2023-04-25T03:07:02.654Z,7.90
2023-04-25T03:08:03.255Z,7.90
2023-04-25T03:09:02.784Z,7.90
2023-04-25T03:10:02.898Z,7.90
2023-04-25T03:11:03.408Z,7.90
2023-04-25T03:12:02.866Z,7.90
2023-04-25T03:13:03.274Z,7.90
2023-04-25T03:14:02.902Z,7.90
2023-04-25T03:15:02.928Z,7.90
2023-04-25T03:16:02.829Z,7.90
2023-04-25T03:17:03.397Z,7.90
2023-04-25T03:18:02.799Z,7.90
2023-04-25T03:19:03.340Z,7.90
2023-04-25T03:20:02.911Z,7.90
2023-04-25T03:21:03.007Z,7.90
2023-04-25T03:22:03.501Z,7.90
2023-04-25T03:23:03.062Z,7.90
2023-04-25T03:24:02.938Z,7.90
2023-04-25T03:25:03.478Z,7.90
2023-04-25T03:26:03.462Z,7.90
2023-04-25T03:27:03.360Z,7.90
2023-04-25T03:28:02.747Z,7.90
2023-04-25T03:29:02.626Z,7.90
2023-04-25T03:30:03.049Z,7.90
2023-04-25T03:31:03.135Z,7.90
2023-04-25T03:32:02.694Z,7.90
2023-04-25T03:33:03.252Z,7.90
2023-04-25T03:34:02.968Z,7.90
2023-04-25T03:35:03.031Z,7.90
2023-04-25T03:36:03.524Z,7.90
2023-04-25T03:37:03.431Z,7.90
2023-04-25T03:38:03.439Z,7.90
2023-04-25T03:39:03.119Z,7.90
2023-04-25T03:40:03.564Z,7.90
2023-04-25T03:41:03.106Z,7.90
2023-04-25T03:42:03.024Z,7.90
2023-04-25T03:43:03.616Z,8.00
2023-04-25T03:44:03.606Z,8.00
2023-04-25T03:45:03.032Z,7.90
2023-04-25T03:46:03.582Z,8.00
2023-04-25T03:47:02.619Z,7.90
2023-04-25T03:48:03.178Z,8.00
2023-04-25T03:49:02.793Z,7.90
2023-04-25T03:50:03.420Z,7.90
2023-04-25T03:51:02.920Z,7.90
2023-04-25T03:52:03.535Z,7.90
2023-04-25T03:53:03.021Z,7.90
2023-04-25T03:54:03.448Z,7.90
2023-04-25T03:55:03.354Z,7.90
2023-04-25T03:56:02.830Z,7.90
2023-04-25T03:57:03.493Z,7.90
2023-04-25T03:58:03.079Z,7.90
2023-04-25T03:59:03.575Z,7.90
2023-04-25T04:00:03.010Z,7.90
2023-04-25T04:01:03.518Z,7.90
2023-04-25T04:02:03.220Z,8.00
2023-04-25T04:03:02.757Z,7.90
2023-04-25T04:04:03.769Z,7.90
2023-04-25T04:05:03.236Z,7.90
2023-04-25T04:06:02.666Z,7.90
2023-04-25T04:07:03.119Z,7.90
2023-04-25T04:08:03.536Z,7.90
2023-04-25T04:09:03.118Z,7.90
2023-04-25T04:10:02.724Z,7.90
2023-04-25T04:11:03.378Z,7.90
2023-04-25T04:12:02.896Z,7.90
2023-04-25T04:13:03.356Z,7.90
2023-04-25T04:14:03.038Z,7.90
2023-04-25T04:15:03.058Z,7.90
2023-04-25T04:16:02.653Z,7.90
2023-04-25T04:17:02.763Z,7.90
2023-04-25T04:18:03.234Z,7.90
2023-04-25T04:19:03.142Z,7.90
2023-04-25T04:20:02.671Z,7.90
2023-04-25T04:21:03.266Z,7.90
2023-04-25T04:22:03.281Z,7.90
2023-04-25T04:23:03.293Z,7.90
2023-04-25T04:24:02.717Z,7.90
2023-04-25T04:25:03.825Z,7.80
2023-04-25T04:26:02.765Z,7.80
2023-04-25T04:27:02.833Z,7.80
2023-04-25T04:28:03.469Z,7.90
2023-04-25T04:29:02.912Z,7.80
2023-04-25T04:30:03.482Z,7.90
2023-04-25T04:31:02.731Z,7.90
2023-04-25T04:32:03.369Z,7.90
2023-04-25T04:33:02.878Z,7.90
2023-04-25T04:34:03.337Z,7.90
2023-04-25T04:35:02.841Z,7.90
2023-04-25T04:36:02.741Z,7.90
2023-04-25T04:37:03.403Z,7.90
2023-04-25T04:38:02.967Z,7.90
2023-04-25T04:39:03.600Z,7.90
2023-04-25T04:40:03.012Z,7.90
2023-04-25T04:41:03.140Z,7.90
2023-04-25T04:42:02.859Z,7.90
2023-04-25T04:43:03.288Z,7.90
2023-04-25T04:44:02.945Z,7.90
2023-04-25T04:45:03.596Z,7.90
2023-04-25T04:46:03.065Z,7.90
2023-04-25T04:47:03.651Z,7.90
2023-04-25T04:48:03.523Z,7.90
2023-04-25T04:49:03.612Z,7.90
2023-04-25T04:50:03.183Z,7.90
2023-04-25T04:51:03.067Z,7.90
2023-04-25T04:52:03.485Z,7.90
2023-04-25T04:53:02.968Z,7.90
2023-04-25T04:54:02.916Z,7.90
2023-04-25T04:55:02.895Z,7.90
2023-04-25T04:56:02.846Z,7.90
2023-04-25T04:57:02.800Z,7.90
2023-04-25T04:58:02.716Z,7.90
2023-04-25T04:59:03.094Z,7.90
2023-04-25T05:00:02.674Z,7.90
2023-04-25T05:01:03.387Z,7.90
2023-04-25T05:02:03.407Z,7.90
2023-04-25T05:03:03.073Z,8.00
2023-04-25T05:04:03.025Z,8.00
2023-04-25T05:05:03.068Z,7.90
2023-04-25T05:06:03.663Z,7.90
2023-04-25T05:07:02.652Z,7.90
2023-04-25T05:08:03.590Z,7.90
2023-04-25T05:09:03.584Z,7.90
2023-04-25T05:10:02.738Z,7.80
2023-04-25T05:11:03.048Z,7.80
2023-04-25T05:12:03.009Z,7.80
2023-04-25T05:13:03.640Z,7.80
2023-04-25T05:14:03.093Z,7.80
2023-04-25T05:15:02.705Z,7.70
2023-04-25T05:16:03.203Z,7.70
2023-04-25T05:17:02.967Z,7.70
2023-04-25T05:18:03.649Z,7.70
2023-04-25T05:19:03.275Z,7.70
2023-04-25T05:20:02.696Z,7.70
2023-04-25T05:21:03.202Z,7.70
2023-04-25T05:22:02.743Z,7.70
2023-04-25T05:23:02.725Z,7.70
2023-04-25T05:24:02.718Z,7.70
2023-04-25T05:25:02.804Z,7.70
2023-04-25T05:26:03.183Z,7.60
2023-04-25T05:27:02.661Z,7.70
2023-04-25T05:28:03.362Z,7.60
2023-04-25T05:29:02.965Z,7.60
2023-04-25T05:30:02.973Z,7.60
2023-04-25T05:31:03.396Z,7.70
2023-04-25T05:32:02.927Z,7.70
2023-04-25T05:33:03.407Z,7.70
2023-04-25T05:34:03.081Z,7.70
2023-04-25T05:35:03.701Z,7.70
2023-04-25T05:36:03.326Z,7.70
2023-04-25T05:37:03.389Z,7.70
2023-04-25T05:38:02.865Z,7.80
2023-04-25T05:39:02.776Z,7.80
2023-04-25T05:40:02.798Z,7.80
2023-04-25T05:41:03.236Z,7.90
2023-04-25T05:42:02.705Z,8.00
2023-04-25T05:43:03.160Z,8.10
2023-04-25T05:44:02.858Z,8.30
2023-04-25T05:45:03.673Z,8.50
2023-04-25T05:46:03.125Z,8.60
2023-04-25T05:47:02.738Z,8.80
2023-04-25T05:48:03.401Z,9.00
2023-04-25T05:49:03.414Z,9.10
2023-04-25T05:50:02.843Z,9.30
2023-04-25T05:51:03.000Z,9.50
2023-04-25T05:52:03.164Z,9.60
2023-04-25T05:53:02.723Z,9.80
2023-04-25T05:54:03.206Z,9.90
2023-04-25T05:55:03.181Z,10.00
2023-04-25T05:56:03.381Z,10.10
2023-04-25T05:57:03.217Z,10.20
2023-04-25T05:58:02.799Z,10.20
2023-04-25T05:59:03.596Z,10.20
2023-04-25T06:00:03.470Z,10.20
2023-04-25T06:01:02.974Z,10.20
2023-04-25T06:02:03.369Z,10.20
2023-04-25T06:03:03.234Z,10.10
2023-04-25T06:04:03.735Z,10.10
2023-04-25T06:05:03.348Z,10.00
2023-04-25T06:06:03.305Z,10.00
2023-04-25T06:07:02.836Z,9.90
2023-04-25T06:08:03.468Z,9.90
2023-04-25T06:09:02.976Z,9.80
2023-04-25T06:10:03.016Z,9.80
2023-04-25T06:11:02.757Z,9.70
2023-04-25T06:12:03.372Z,9.70
2023-04-25T06:13:02.926Z,9.70
2023-04-25T06:14:03.397Z,9.60
2023-04-25T06:15:04.792Z,9.60
2023-04-25T06:16:03.044Z,9.60
2023-04-25T06:17:02.917Z,9.60
2023-04-25T06:18:03.415Z,9.50
2023-04-25T06:19:03.534Z,9.50
2023-04-25T06:20:04.613Z,9.50
2023-04-25T06:21:02.785Z,9.50
2023-04-25T06:22:03.568Z,9.50
2023-04-25T06:23:03.527Z,9.50
2023-04-25T06:24:02.955Z,9.50
2023-04-25T06:25:02.916Z,9.50
2023-04-25T06:26:03.469Z,9.40
2023-04-25T06:27:03.379Z,9.50
2023-04-25T06:28:03.465Z,9.50
2023-04-25T06:29:02.983Z,9.60
2023-04-25T06:30:03.617Z,9.60
2023-04-25T06:31:02.652Z,9.70
2023-04-25T06:32:03.215Z,9.80
2023-04-25T06:33:02.882Z,10.00
2023-04-25T06:34:02.916Z,10.10
2023-04-25T06:35:03.453Z,10.40
2023-04-25T06:36:02.963Z,10.60
2023-04-25T06:37:03.417Z,10.70
2023-04-25T06:38:03.022Z,10.90
2023-04-25T06:39:02.635Z,11.10
2023-04-25T06:40:03.314Z,11.20
2023-04-25T06:41:02.930Z,11.40
2023-04-25T06:42:03.006Z,11.60
2023-04-25T06:43:02.979Z,11.70
2023-04-25T06:44:02.982Z,11.70
2023-04-25T06:45:03.424Z,11.80
2023-04-25T06:46:03.533Z,11.80
2023-04-25T06:47:02.785Z,11.80
2023-04-25T06:48:03.021Z,11.80
2023-04-25T06:49:02.879Z,11.80
2023-04-25T06:50:03.459Z,11.80
2023-04-25T06:51:02.915Z,11.90
2023-04-25T06:52:03.345Z,11.90
2023-04-25T06:53:03.003Z,12.00
2023-04-25T06:54:03.545Z,12.10
2023-04-25T06:55:03.529Z,12.10
2023-04-25T06:56:03.071Z,12.20
2023-04-25T06:57:02.667Z,12.30
2023-04-25T06:58:03.116Z,12.40
2023-04-25T06:59:03.027Z,12.50
2023-04-25T07:00:02.751Z,12.60
2023-04-25T07:01:03.595Z,12.60
2023-04-25T07:02:03.155Z,12.60
2023-04-25T07:03:02.973Z,12.60
2023-04-25T07:04:03.644Z,12.50
2023-04-25T07:05:03.674Z,12.50
2023-04-25T07:06:03.666Z,12.40
2023-04-25T07:07:03.206Z,12.40
2023-04-25T07:08:03.589Z,12.40
2023-04-25T07:09:03.165Z,12.30
2023-04-25T07:10:02.783Z,12.20
2023-04-25T07:11:03.340Z,12.10
2023-04-25T07:12:03.180Z,12.10
2023-04-25T07:13:02.814Z,11.90
2023-04-25T07:14:02.883Z,11.80
2023-04-25T07:15:02.813Z,11.70
2023-04-25T07:16:02.701Z,11.70
2023-04-25T07:17:03.606Z,11.60
2023-04-25T07:18:03.185Z,11.50
2023-04-25T07:19:03.438Z,11.50
2023-04-25T07:20:03.220Z,11.40
2023-04-25T07:21:02.735Z,11.40
2023-04-25T07:22:03.380Z,11.40
2023-04-25T07:23:03.424Z,11.30
2023-04-25T07:24:02.862Z,11.30
2023-04-25T07:25:03.497Z,11.30
2023-04-25T07:26:03.383Z,11.30
2023-04-25T07:27:03.526Z,11.30
2023-04-25T07:28:03.093Z,11.30
2023-04-25T07:29:04.449Z,11.40
2023-04-25T07:30:02.935Z,11.40
2023-04-25T07:31:02.943Z,11.40
2023-04-25T07:32:03.523Z,11.50
2023-04-25T07:33:03.071Z,11.50
2023-04-25T07:34:02.881Z,11.50
2023-04-25T07:35:04.193Z,11.50
2023-04-25T07:36:03.356Z,11.50
2023-04-25T07:37:03.364Z,11.40
2023-04-25T07:38:03.440Z,11.40
2023-04-25T07:39:03.001Z,11.30
2023-04-25T07:40:03.509Z,11.30
2023-04-25T07:41:03.073Z,11.30
2023-04-25T07:42:03.617Z,11.20
2023-04-25T07:43:03.134Z,11.20
2023-04-25T07:44:02.986Z,11.20
2023-04-25T07:45:03.621Z,11.10
2023-04-25T07:46:03.160Z,11.10
2023-04-25T07:47:04.363Z,11.00
2023-04-25T07:48:03.585Z,11.00
2023-04-25T07:49:03.214Z,11.00
2023-04-25T07:50:02.745Z,11.00
2023-04-25T07:51:03.405Z,10.90
2023-04-25T07:52:02.804Z,10.90
2023-04-25T07:53:02.809Z,10.90
2023-04-25T07:54:03.409Z,10.90
2023-04-25T07:55:03.054Z,10.80
2023-04-25T07:56:03.141Z,10.80
2023-04-25T07:57:03.184Z,10.80
2023-04-25T07:58:02.764Z,10.70
2023-04-25T07:59:03.159Z,10.70
2023-04-25T08:00:02.732Z,10.70
2023-04-25T08:01:02.647Z,10.60
2023-04-25T08:02:03.303Z,10.60
2023-04-25T08:03:03.446Z,10.60
2023-04-25T08:04:03.402Z,10.60
2023-04-25T08:05:03.382Z,10.60
2023-04-25T08:06:04.916Z,10.50
2023-04-25T08:07:03.470Z,10.50
2023-04-25T08:08:03.510Z,10.50
2023-04-25T08:09:03.192Z,10.50
2023-04-25T08:10:02.656Z,10.40
2023-04-25T08:11:02.663Z,10.40
2023-04-25T08:12:03.241Z,10.40
2023-04-25T08:13:02.780Z,10.30
2023-04-25T08:14:03.162Z,10.30
2023-04-25T08:15:02.701Z,10.30
2023-04-25T08:16:03.376Z,10.20
2023-04-25T08:17:03.057Z,10.20
2023-04-25T08:18:03.525Z,10.10
2023-04-25T08:19:03.169Z,10.10
2023-04-25T08:20:03.089Z,10.10
2023-04-25T08:21:03.660Z,10.00
2023-04-25T08:22:03.119Z,10.00
2023-04-25T08:23:03.613Z,9.90
2023-04-25T08:24:03.270Z,9.80
2023-04-25T08:25:02.942Z,9.80
2023-04-25T08:26:03.436Z,9.80
2023-04-25T08:27:03.018Z,9.70
2023-04-25T08:28:03.538Z,9.70
2023-04-25T08:29:03.092Z,9.70
2023-04-25T08:30:03.545Z,9.60
2023-04-25T08:31:02.717Z,9.60
2023-04-25T08:32:03.205Z,9.60
2023-04-25T08:33:03.069Z,9.60
2023-04-25T08:34:02.917Z,9.50
2023-04-25T08:35:03.570Z,9.50
2023-04-25T08:36:03.076Z,9.50
2023-04-25T08:37:02.735Z,9.50
2023-04-25T08:38:03.243Z,9.50
2023-04-25T08:39:03.335Z,9.40
2023-04-25T08:40:02.870Z,9.40
2023-04-25T08:41:03.498Z,9.40
2023-04-25T08:42:02.989Z,9.40
2023-04-25T08:43:03.058Z,9.40
2023-04-25T08:44:03.546Z,9.40
2023-04-25T08:45:04.447Z,9.40
2023-04-25T08:46:03.143Z,9.40
2023-04-25T08:47:02.695Z,9.40
2023-04-25T08:48:03.252Z,9.30
2023-04-25T08:49:02.893Z,9.30
2023-04-25T08:50:03.496Z,9.30
2023-04-25T08:51:03.043Z,9.30
2023-04-25T08:52:03.633Z,9.30
2023-04-25T08:53:02.711Z,9.20
2023-04-25T08:54:31.259Z,9.20
2023-04-25T08:55:02.996Z,9.20
2023-04-25T08:56:03.581Z,9.20
2023-04-25T08:57:03.038Z,9.20
2023-04-25T08:58:03.551Z,9.20
2023-04-25T08:59:03.535Z,9.20
2023-04-25T09:00:02.968Z,9.10
2023-04-25T09:01:03.631Z,9.20
2023-04-25T09:02:02.902Z,9.10
2023-04-25T09:03:03.714Z,9.20
2023-04-25T09:04:02.811Z,9.20
2023-04-25T09:05:03.149Z,9.20
2023-04-25T09:06:03.134Z,9.20
2023-04-25T09:07:03.583Z,9.20
2023-04-25T09:08:03.312Z,9.20
2023-04-25T09:09:03.248Z,9.20
2023-04-25T09:10:02.803Z,9.20
2023-04-25T09:11:02.966Z,9.20
2023-04-25T09:12:02.961Z,9.20
2023-04-25T09:13:03.449Z,9.20
2023-04-25T09:14:02.867Z,9.30
2023-04-25T09:15:02.864Z,9.30
2023-04-25T09:16:03.569Z,9.30
2023-04-25T09:17:03.511Z,9.30
2023-04-25T09:18:03.014Z,9.30
2023-04-25T09:19:02.857Z,9.30
2023-04-25T09:20:03.430Z,9.30
2023-04-25T09:21:05.786Z,9.30
2023-04-25T09:22:03.285Z,9.30
2023-04-25T09:23:03.294Z,9.30
2023-04-25T09:24:03.394Z,9.30
2023-04-25T09:25:03.384Z,9.30
2023-04-25T09:26:02.827Z,9.30
2023-04-25T09:27:03.444Z,9.20
2023-04-25T09:28:02.945Z,9.20
2023-04-25T09:29:03.457Z,9.20
2023-04-25T09:30:03.453Z,9.20
2023-04-25T09:31:02.965Z,9.10
2023-04-25T09:32:02.692Z,9.10
2023-04-25T09:33:03.476Z,9.10
2023-04-25T09:34:03.529Z,9.10
2023-04-25T09:35:02.736Z,9.10
2023-04-25T09:36:03.400Z,9.00
2023-04-25T09:37:02.897Z,9.00
2023-04-25T09:38:02.793Z,8.90
2023-04-25T09:39:02.730Z,8.90
2023-04-25T09:40:03.592Z,8.90
2023-04-25T09:41:02.736Z,8.90
2023-04-25T09:42:03.117Z,8.90
2023-04-25T09:43:02.813Z,8.80
2023-04-25T09:44:03.411Z,8.80
2023-04-25T09:45:02.982Z,8.80
2023-04-25T09:46:03.113Z,8.80
2023-04-25T09:47:03.067Z,8.80
2023-04-25T09:48:02.677Z,8.80
2023-04-25T09:49:03.383Z,8.80
2023-04-25T09:50:03.205Z,8.80
2023-04-25T09:51:02.764Z,8.80
2023-04-25T09:52:03.208Z,8.80
2023-04-25T09:53:02.894Z,8.80
2023-04-25T09:54:03.019Z,8.80
2023-04-25T09:55:03.029Z,8.80
2023-04-25T09:56:03.415Z,8.80
2023-04-25T09:57:03.615Z,8.80
2023-04-25T09:58:03.258Z,8.80
2023-04-25T09:59:03.271Z,8.80
2023-04-25T10:00:03.165Z,8.80
2023-04-25T10:01:03.538Z,8.80
2023-04-25T10:02:03.362Z,8.80
2023-04-25T10:03:03.163Z,8.80
2023-04-25T10:04:03.350Z,8.80
2023-04-25T10:05:03.335Z,8.80
2023-04-25T10:06:02.937Z,8.80
2023-04-25T10:07:03.294Z,8.80
2023-04-25T10:08:02.946Z,8.80
2023-04-25T10:09:02.965Z,8.80
2023-04-25T10:10:03.624Z,8.70
2023-04-25T10:11:02.805Z,8.70
2023-04-25T10:12:03.187Z,8.70
2023-04-25T10:13:03.355Z,8.70
2023-04-25T10:14:02.869Z,8.70
2023-04-25T10:15:03.577Z,8.70
2023-04-25T10:16:03.397Z,8.70
2023-04-25T10:17:02.984Z,8.70
2023-04-25T10:18:03.511Z,8.70
2023-04-25T10:19:03.407Z,8.70
2023-04-25T10:20:02.995Z,8.70
2023-04-25T10:21:03.598Z,8.70
2023-04-25T10:22:03.164Z,8.60
2023-04-25T10:23:02.666Z,8.70
2023-04-25T10:24:03.064Z,8.70
2023-04-25T10:25:03.164Z,8.60
2023-04-25T10:26:03.261Z,8.60
2023-04-25T10:27:03.198Z,8.60
2023-04-25T10:28:02.864Z,8.60
2023-04-25T10:29:02.750Z,8.60
2023-04-25T10:30:03.252Z,8.60
2023-04-25T10:31:02.817Z,8.60
2023-04-25T10:32:03.477Z,8.60
2023-04-25T10:33:03.562Z,8.60
2023-04-25T10:34:03.154Z,8.50
2023-04-25T10:35:03.251Z,8.50
2023-04-25T10:36:03.466Z,8.50
2023-04-25T10:37:02.820Z,8.50
2023-04-25T10:38:03.472Z,8.50
2023-04-25T10:39:02.981Z,8.50
2023-04-25T10:40:02.796Z,8.50
2023-04-25T10:41:02.837Z,8.50
2023-04-25T10:42:03.337Z,8.50
2023-04-25T10:43:02.982Z,8.60
2023-04-25T10:44:03.547Z,8.60
2023-04-25T10:45:03.037Z,8.60
2023-04-25T10:46:02.664Z,8.70
2023-04-25T10:47:02.964Z,8.70
2023-04-25T10:48:02.731Z,8.80
2023-04-25T10:49:03.434Z,8.80
2023-04-25T10:50:03.367Z,8.90
2023-04-25T10:51:02.890Z,8.90
2023-04-25T10:52:02.882Z,9.00
2023-04-25T10:53:03.297Z,9.00
2023-04-25T10:54:03.035Z,9.10
2023-04-25T10:55:03.590Z,9.10
2023-04-25T10:56:02.674Z,9.10
2023-04-25T10:57:03.267Z,9.10
2023-04-25T10:58:03.363Z,9.10
2023-04-25T10:59:02.831Z,9.10
2023-04-25T11:00:03.504Z,9.20
2023-04-25T11:01:03.021Z,9.20
2023-04-25T11:02:03.721Z,9.10
2023-04-25T11:03:03.658Z,9.10
2023-04-25T11:04:03.494Z,9.00
2023-04-25T11:05:03.445Z,8.90
2023-04-25T11:06:03.138Z,8.90
2023-04-25T11:08:08.038Z,8.70
2023-04-25T11:09:03.392Z,8.60
2023-04-25T11:10:03.419Z,8.60
2023-04-25T11:11:03.018Z,8.50
2023-04-25T11:12:02.692Z,8.50
2023-04-25T11:13:03.425Z,8.40
2023-04-25T11:14:02.983Z,8.30
2023-04-25T11:15:03.619Z,8.30
2023-04-25T11:16:07.293Z,8.30
2023-04-25T11:17:02.902Z,8.20
2023-04-25T11:18:03.388Z,8.30
2023-04-25T11:19:02.630Z,8.30
2023-04-25T11:20:03.115Z,8.20
2023-04-25T11:21:03.147Z,8.20
2023-04-25T11:22:03.571Z,8.20
2023-04-25T11:24:03.063Z,8.20
2023-04-25T11:25:03.599Z,8.20
2023-04-25T11:26:03.186Z,8.20
2023-04-25T11:27:03.344Z,8.30
2023-04-25T11:28:03.506Z,8.30
2023-04-25T11:29:03.020Z,8.30
2023-04-25T11:30:03.638Z,8.30
2023-04-25T11:31:03.587Z,8.40
2023-04-25T11:32:03.230Z,8.40
2023-04-25T11:33:03.524Z,8.50
2023-04-25T11:34:02.922Z,8.50
2023-04-25T11:35:03.506Z,8.60
2023-04-25T11:36:02.959Z,8.60
2023-04-25T11:37:03.203Z,8.60
2023-04-25T11:38:02.821Z,8.70
2023-04-25T11:39:03.338Z,8.70
2023-04-25T11:40:03.438Z,8.80
2023-04-25T11:41:02.874Z,8.80
2023-04-25T11:42:03.825Z,8.90
2023-04-25T11:43:03.133Z,8.90
2023-04-25T11:44:02.772Z,8.90
2023-04-25T11:45:03.603Z,9.00
2023-04-25T11:46:03.335Z,9.00
2023-04-25T11:47:02.796Z,9.10
2023-04-25T11:48:02.901Z,9.20
2023-04-25T11:49:02.709Z,9.20
2023-04-25T11:50:03.185Z,9.30
2023-04-25T11:51:02.902Z,9.30
2023-04-25T11:52:02.791Z,9.40
2023-04-25T11:53:02.762Z,9.40
2023-04-25T11:54:03.324Z,9.40
2023-04-25T11:55:02.909Z,9.40
2023-04-25T11:56:02.846Z,9.40
2023-04-25T11:57:03.554Z,9.40
2023-04-25T11:58:03.206Z,9.40
2023-04-25T11:59:02.759Z,9.40
2023-04-25T12:00:03.437Z,9.40
2023-04-25T12:01:03.072Z,9.30
2023-04-25T12:02:03.021Z,9.30
2023-04-25T12:03:03.787Z,9.30
2023-04-25T12:04:03.945Z,9.30
2023-04-25T12:05:12.011Z,9.20
2023-04-25T12:06:03.371Z,9.20
2023-04-25T12:07:02.902Z,9.20
2023-04-25T12:08:02.716Z,9.20
2023-04-25T12:09:03.449Z,9.20
2023-04-25T12:10:02.906Z,9.20
2023-04-25T12:11:03.570Z,9.10
2023-04-25T12:12:03.628Z,9.10
2023-04-25T12:13:03.688Z,9.10
2023-04-25T12:14:02.611Z,9.10
2023-04-25T12:15:03.549Z,9.10
2023-04-25T12:16:03.597Z,9.10
2023-04-25T12:17:03.248Z,9.00
2023-04-25T12:18:03.309Z,9.00
2023-04-25T12:19:03.399Z,9.00
2023-04-25T12:20:02.867Z,9.00
2023-04-25T12:21:02.964Z,9.00
2023-04-25T12:22:02.807Z,9.00
2023-04-25T12:23:03.425Z,9.00
2023-04-25T12:24:02.927Z,9.00
2023-04-25T12:25:02.947Z,9.00
2023-04-25T12:26:03.050Z,9.00
2023-04-25T12:27:03.142Z,9.00
2023-04-25T12:28:03.049Z,9.10
2023-04-25T12:29:02.690Z,9.10
2023-04-25T12:30:02.887Z,9.10
2023-04-25T12:31:02.831Z,9.20
2023-04-25T12:32:03.002Z,9.20
2023-04-25T12:33:03.533Z,9.30
2023-04-25T12:34:03.201Z,9.30
2023-04-25T12:35:02.841Z,9.40
2023-04-25T12:36:03.839Z,9.40
2023-04-25T12:37:03.050Z,9.50
2023-04-25T12:38:03.685Z,9.60
2023-04-25T12:39:03.563Z,9.60
2023-04-25T12:40:03.288Z,9.70
2023-04-25T12:41:03.051Z,9.70
2023-04-25T12:42:03.424Z,9.80
2023-04-25T12:43:03.288Z,9.80
2023-04-25T12:44:03.163Z,9.90
2023-04-25T12:45:02.797Z,9.90
2023-04-25T12:46:03.347Z,10.00
2023-04-25T12:47:02.883Z,10.10
2023-04-25T12:48:04.210Z,10.10
2023-04-25T12:49:17.362Z,10.20
2023-04-25T12:50:03.092Z,10.30
2023-04-25T12:51:03.009Z,10.40
2023-04-25T12:52:02.602Z,10.50
2023-04-25T12:53:03.424Z,10.60
2023-04-25T12:54:02.987Z,10.70
2023-04-25T12:55:02.854Z,10.80
2023-04-25T12:56:03.768Z,10.80
2023-04-25T12:57:02.655Z,10.90
2023-04-25T12:58:03.078Z,10.90
2023-04-25T12:59:02.793Z,11.00
2023-04-25T13:00:03.447Z,11.00
2023-04-25T13:01:03.198Z,11.00
2023-04-25T13:02:03.379Z,11.00
2023-04-25T13:03:03.493Z,11.00
2023-04-25T13:04:03.572Z,10.90
2023-04-25T13:05:03.463Z,10.90
2023-04-25T13:06:02.997Z,10.80
2023-04-25T13:07:02.974Z,10.80
2023-04-25T13:08:03.129Z,10.80
2023-04-25T13:09:03.576Z,10.70
2023-04-25T13:10:03.642Z,10.70
2023-04-25T13:11:02.680Z,10.60
2023-04-25T13:12:02.613Z,10.60
2023-04-25T13:13:03.177Z,10.60
2023-04-25T13:14:03.632Z,10.50
2023-04-25T13:15:03.295Z,10.50